createdAt,value
2022-09-07T00:02:25.566Z,100.00
2022-09-07T00:04:52.301Z,100.00
2022-09-07T00:07:19.016Z,100.00
2022-09-07T00:09:45.848Z,100.00
2022-09-07T00:12:12.581Z,100.00
2022-09-07T00:14:39.241Z,100.00
2022-09-07T00:17:05.962Z,100.00
2022-09-07T00:19:32.656Z,100.00
2022-09-07T00:21:59.381Z,100.00
2022-09-07T00:24:26.139Z,100.00
2022-09-07T00:26:55.334Z,100.00
2022-09-07T00:29:22.136Z,100.00
2022-09-07T00:31:48.858Z,100.00
2022-09-07T00:34:15.616Z,100.00
2022-09-07T00:36:42.295Z,100.00
2022-09-07T00:39:09.106Z,100.00
2022-09-07T00:41:35.847Z,100.00
2022-09-07T00:44:40.087Z,100.00
2022-09-07T00:47:14.772Z,100.00
2022-09-07T00:49:46.676Z,100.00
2022-09-07T00:52:15.714Z,100.00
2022-09-07T00:54:47.468Z,100.00
2022-09-07T00:57:14.421Z,100.00
2022-09-07T00:59:47.379Z,100.00
2022-09-07T01:02:17.452Z,100.00
2022-09-07T01:04:46.717Z,100.00
2022-09-07T01:07:13.440Z,100.00
2022-09-07T01:09:40.665Z,100.00
2022-09-07T01:12:07.658Z,100.00
2022-09-07T01:14:39.776Z,100.00
2022-09-07T01:17:25.724Z,100.00
2022-09-07T01:20:26.505Z,100.00
2022-09-07T01:23:12.010Z,100.00
2022-09-07T01:25:41.514Z,100.00
2022-09-07T01:28:25.694Z,100.00
2022-09-07T01:30:57.570Z,100.00
2022-09-07T01:33:45.079Z,100.00
2022-09-07T01:36:36.793Z,100.00
2022-09-07T01:39:05.176Z,100.00
2022-09-07T01:41:35.002Z,100.00
2022-09-07T01:44:17.282Z,100.00
2022-09-07T01:46:52.635Z,100.00
2022-09-07T01:49:30.597Z,100.00
2022-09-07T01:52:02.452Z,100.00
2022-09-07T01:54:32.881Z,100.00
2022-09-07T01:57:09.192Z,100.00
2022-09-07T02:00:05.051Z,100.00
2022-09-07T02:02:35.571Z,100.00
2022-09-07T02:05:06.862Z,100.00
2022-09-07T02:07:47.663Z,100.00
2022-09-07T02:10:20.575Z,100.00
2022-09-07T02:13:02.080Z,100.00
2022-09-07T02:15:43.314Z,100.00
2022-09-07T02:18:14.240Z,100.00
2022-09-07T02:20:46.386Z,100.00
2022-09-07T02:23:19.463Z,100.00
2022-09-07T02:25:53.732Z,100.00
2022-09-07T02:28:29.492Z,100.00
2022-09-07T02:30:56.496Z,100.00
2022-09-07T02:33:23.428Z,100.00
2022-09-07T02:35:51.042Z,100.00
2022-09-07T02:38:17.919Z,100.00
2022-09-07T02:40:52.959Z,100.00
2022-09-07T02:43:20.754Z,100.00
2022-09-07T02:46:15.192Z,100.00
2022-09-07T02:48:47.200Z,100.00
2022-09-07T02:51:45.679Z,100.00
2022-09-07T02:54:29.068Z,100.00
2022-09-07T02:57:07.572Z,100.00
2022-09-07T02:59:52.385Z,100.00
2022-09-07T03:02:31.683Z,100.00
2022-09-07T03:05:17.235Z,100.00
2022-09-07T03:07:51.548Z,100.00
2022-09-07T03:10:19.124Z,100.00
2022-09-07T03:12:48.971Z,100.00
2022-09-07T03:15:20.360Z,100.00
2022-09-07T03:17:47.101Z,100.00
2022-09-07T03:20:14.724Z,100.00
2022-09-07T03:22:44.163Z,100.00
2022-09-07T03:25:11.739Z,100.00
2022-09-07T03:27:38.559Z,100.00
2022-09-07T03:30:07.662Z,100.00
2022-09-07T03:32:36.150Z,100.00
2022-09-07T03:35:04.131Z,100.00
2022-09-07T03:37:30.810Z,100.00
2022-09-07T03:39:57.675Z,100.00
2022-09-07T03:42:24.540Z,100.00
2022-09-07T03:44:51.818Z,100.00
2022-09-07T03:47:18.971Z,100.00
2022-09-07T03:49:45.712Z,100.00
2022-09-07T03:52:12.710Z,100.00
2022-09-07T03:54:39.911Z,100.00
2022-09-07T03:57:06.990Z,100.00
2022-09-07T03:59:33.959Z,100.00
2022-09-07T04:02:01.393Z,100.00
2022-09-07T04:04:28.637Z,100.00
2022-09-07T04:06:55.390Z,100.00
2022-09-07T04:09:22.126Z,100.00
2022-09-07T04:11:48.914Z,100.00
2022-09-07T04:14:18.008Z,100.00
2022-09-07T04:16:45.617Z,100.00
2022-09-07T04:19:12.909Z,100.00
2022-09-07T04:21:44.659Z,100.00
2022-09-07T04:24:11.409Z,100.00
2022-09-07T04:26:38.158Z,100.00
2022-09-07T04:29:06.751Z,100.00
2022-09-07T04:31:34.282Z,100.00
2022-09-07T04:34:01.253Z,100.00
2022-09-07T04:36:28.249Z,100.00
2022-09-07T04:39:04.206Z,100.00
2022-09-07T04:41:33.200Z,100.00
2022-09-07T04:44:02.160Z,100.00
2022-09-07T04:46:33.648Z,100.00
2022-09-07T04:49:03.151Z,100.00
2022-09-07T04:51:31.790Z,100.00
2022-09-07T04:54:00.281Z,100.00
2022-09-07T04:56:27.369Z,100.00
2022-09-07T04:58:54.304Z,100.00
2022-09-07T05:01:23.921Z,100.00
2022-09-07T05:03:50.796Z,100.00
2022-09-07T05:06:19.012Z,100.00
2022-09-07T05:08:49.308Z,100.00
2022-09-07T05:11:16.876Z,100.00
2022-09-07T05:13:43.736Z,100.00
2022-09-07T05:16:18.742Z,100.00
2022-09-07T05:18:49.364Z,100.00
2022-09-07T05:21:22.328Z,100.00
2022-09-07T05:23:51.313Z,100.00
2022-09-07T05:26:19.365Z,100.00
2022-09-07T08:31:25.904Z,32.87
2022-09-07T08:33:52.716Z,32.78
2022-09-07T08:36:20.726Z,30.17
2022-09-07T08:38:48.232Z,33.38
2022-09-07T08:41:30.128Z,31.88
2022-09-07T08:44:13.867Z,33.48
2022-09-07T08:46:52.902Z,34.09
2022-09-07T08:49:25.597Z,35.66
2022-09-07T08:52:00.783Z,34.08
2022-09-07T08:54:27.901Z,32.13
2022-09-07T08:59:51.958Z,33.62
2022-09-07T09:02:40.293Z,33.68
2022-09-07T09:05:17.550Z,34.52
2022-09-07T09:08:06.493Z,36.88
2022-09-07T09:11:05.860Z,36.17
2022-09-07T09:13:55.050Z,34.82
2022-09-07T09:16:38.346Z,35.03
2022-09-07T09:19:06.266Z,35.67
2022-09-07T09:21:34.853Z,36.13
2022-09-07T09:24:12.295Z,36.11
2022-09-07T09:26:42.063Z,37.62
2022-09-07T09:29:14.682Z,37.96
2022-09-07T09:31:42.171Z,37.25
2022-09-07T09:34:14.419Z,40.08
2022-09-07T09:36:50.676Z,38.42
2022-09-07T09:39:34.424Z,41.53
2022-09-07T09:42:10.283Z,40.59
2022-09-07T09:44:38.411Z,41.02
2022-09-07T09:49:53.824Z,41.66
2022-09-07T09:52:33.643Z,40.22
2022-09-07T09:55:33.335Z,42.36
2022-09-07T10:03:56.732Z,43.47
2022-09-07T10:06:25.147Z,44.36
2022-09-07T10:08:54.862Z,42.62
2022-09-07T10:14:43.396Z,43.93
2022-09-07T10:17:19.830Z,41.88
2022-09-07T10:19:46.561Z,41.04
2022-09-07T10:22:33.379Z,41.92
2022-09-07T10:25:03.800Z,41.72
2022-09-07T10:27:36.523Z,44.61
2022-09-07T10:30:12.619Z,43.72
2022-09-07T10:33:02.358Z,43.93
2022-09-07T10:35:35.181Z,42.13
2022-09-07T10:38:17.126Z,41.25
2022-09-07T10:41:01.283Z,42.87
2022-09-07T10:43:49.999Z,43.97
2022-09-07T10:53:36.558Z,45.22
2022-09-07T10:56:08.860Z,43.15
2022-09-07T10:59:19.187Z,45.56
2022-09-07T11:02:17.026Z,44.21
2022-09-07T11:05:08.543Z,40.39
2022-09-07T11:07:57.231Z,44.31
2022-09-07T11:10:27.134Z,44.51
2022-09-07T11:12:59.338Z,42.25
2022-09-07T11:15:35.131Z,41.18
2022-09-07T11:18:15.034Z,39.66
2022-09-07T11:20:59.057Z,44.78
2022-09-07T11:23:44.919Z,43.36
2022-09-07T11:26:18.160Z,40.23
2022-09-07T11:29:29.091Z,42.75
2022-09-07T11:31:40.595Z,45.11
2022-09-07T11:34:24.134Z,43.58
2022-09-07T11:37:01.067Z,44.30
2022-09-07T11:39:36.376Z,43.27
2022-09-07T11:45:06.408Z,44.03
2022-09-07T11:48:03.474Z,42.74
2022-09-07T11:50:35.755Z,44.71
2022-09-07T11:53:17.430Z,42.82
2022-09-07T11:55:49.577Z,43.41
2022-09-07T11:58:37.674Z,42.52
2022-09-07T12:01:49.815Z,42.39
2022-09-07T12:04:46.727Z,46.03
2022-09-07T12:07:34.804Z,43.21
2022-09-07T12:10:27.227Z,48.20
2022-09-07T12:12:54.023Z,46.50
2022-09-07T12:15:24.837Z,43.49
2022-09-07T12:18:16.399Z,45.32
2022-09-07T12:20:44.258Z,42.98
2022-09-07T12:23:16.997Z,46.18
2022-09-07T12:25:45.788Z,47.29
2022-09-07T12:28:35.966Z,46.12
2022-09-07T12:31:06.030Z,43.97
2022-09-07T12:33:34.175Z,43.88
2022-09-07T12:36:02.201Z,44.05
2022-09-07T12:38:31.856Z,46.58
2022-09-07T12:41:04.320Z,46.25
2022-09-07T12:43:44.449Z,45.87
2022-09-07T12:46:20.484Z,48.16
2022-09-07T12:48:53.410Z,47.48
2022-09-07T12:54:46.799Z,45.67
2022-09-07T12:57:35.637Z,45.78
2022-09-07T13:00:06.951Z,42.96
2022-09-07T13:03:02.215Z,41.73
2022-09-07T13:05:50.623Z,46.73
2022-09-07T13:08:17.286Z,44.94
2022-09-07T13:10:45.082Z,43.00
2022-09-07T13:13:14.886Z,44.36
2022-09-07T13:15:49.643Z,44.09
2022-09-07T13:18:28.815Z,48.26
2022-09-07T13:21:18.117Z,47.63
2022-09-07T13:27:06.232Z,46.80
2022-09-07T13:29:49.134Z,50.98
2022-09-07T13:35:25.235Z,47.49
2022-09-07T13:38:00.446Z,46.60
2022-09-07T13:40:30.324Z,51.43
2022-09-07T13:42:59.363Z,48.58
2022-09-07T13:45:29.166Z,47.61
2022-09-07T13:48:17.703Z,48.49
2022-09-07T13:51:13.297Z,48.02
2022-09-07T13:53:55.650Z,47.92
2022-09-07T13:56:37.522Z,47.49
2022-09-07T13:59:24.091Z,49.07
2022-09-07T14:01:51.584Z,48.22
2022-09-07T14:04:37.805Z,47.16
2022-09-07T14:07:09.199Z,48.56
2022-09-07T14:09:35.935Z,46.57
2022-09-07T14:12:02.883Z,47.37
2022-09-07T14:14:33.152Z,48.35
2022-09-07T14:16:59.827Z,45.53
2022-09-07T14:19:35.730Z,48.76
2022-09-07T14:22:06.870Z,46.28
2022-09-07T14:24:35.075Z,48.56
2022-09-07T14:27:02.167Z,50.68
2022-09-07T14:29:32.271Z,47.91
2022-09-07T14:32:01.226Z,50.52
2022-09-07T14:34:34.227Z,48.87
2022-09-07T14:37:05.611Z,48.50
2022-09-07T14:39:37.492Z,48.19
2022-09-07T14:42:04.628Z,50.30
2022-09-07T14:44:39.066Z,48.94
2022-09-07T14:47:30.214Z,48.75
2022-09-07T14:50:05.074Z,48.78
2022-09-07T14:53:33.272Z,49.25
2022-09-07T14:55:38.902Z,48.94
2022-09-07T14:58:14.957Z,52.22
2022-09-07T15:03:39.286Z,50.06
2022-09-07T15:06:07.360Z,52.89
2022-09-07T15:08:41.565Z,49.62
2022-09-07T15:11:40.258Z,53.46
2022-09-07T15:14:11.144Z,53.45
2022-09-07T15:16:43.875Z,54.87
2022-09-07T15:19:16.667Z,55.76
2022-09-07T15:21:44.523Z,54.85
2022-09-07T15:24:11.988Z,53.38
2022-09-07T15:27:04.310Z,55.39
2022-09-07T15:29:31.892Z,56.32
2022-09-07T15:32:03.770Z,57.35
2022-09-07T15:34:32.521Z,57.66
2022-09-07T15:37:01.001Z,59.04
2022-09-07T15:39:30.100Z,56.49
2022-09-07T15:41:58.165Z,58.01
2022-09-07T15:44:28.487Z,59.79
2022-09-07T15:49:47.747Z,59.81
2022-09-07T15:52:20.709Z,61.50
2022-09-07T15:54:47.308Z,63.66
2022-09-07T16:00:00.605Z,62.95
2022-09-07T16:05:14.221Z,78.97
2022-09-07T16:10:31.071Z,85.00
2022-09-07T16:13:02.887Z,85.61
2022-09-07T16:15:31.572Z,91.53
2022-09-07T16:17:58.758Z,94.14
2022-09-07T16:20:25.582Z,100.00
2022-09-07T16:25:39.832Z,100.00
2022-09-07T16:28:07.263Z,100.00
2022-09-07T16:30:34.758Z,100.00
2022-09-07T16:33:01.494Z,100.00
2022-09-07T16:35:28.228Z,100.00
2022-09-07T16:40:41.900Z,100.00
2022-09-07T16:43:10.007Z,100.00
2022-09-07T16:48:23.531Z,100.00
2022-09-07T16:51:00.409Z,100.00
2022-09-07T16:53:29.660Z,100.00
2022-09-07T16:56:16.513Z,100.00
2022-09-07T16:58:45.882Z,100.00
2022-09-07T17:01:16.030Z,100.00
2022-09-07T17:03:43.410Z,100.00
2022-09-07T17:06:12.238Z,100.00
2022-09-07T17:08:40.216Z,100.00
2022-09-07T17:11:24.030Z,100.00
2022-09-07T17:13:51.739Z,100.00
2022-09-07T17:16:24.236Z,100.00
2022-09-07T17:21:40.180Z,100.00
2022-09-07T17:24:08.548Z,100.00
2022-09-07T17:26:35.413Z,100.00
2022-09-07T17:29:02.223Z,100.00
2022-09-07T17:34:19.775Z,100.00
2022-09-07T17:36:47.114Z,100.00
2022-09-07T17:39:16.386Z,100.00
2022-09-07T17:41:44.707Z,100.00
2022-09-07T17:44:11.855Z,100.00
2022-09-07T17:46:38.951Z,100.00
2022-09-07T17:49:08.081Z,100.00
2022-09-07T17:51:35.925Z,100.00
2022-09-07T17:54:12.768Z,100.00
2022-09-07T17:56:40.503Z,100.00
2022-09-07T18:01:54.539Z,100.00
2022-09-07T18:04:22.082Z,100.00
2022-09-07T18:06:48.990Z,100.00
2022-09-07T18:09:19.896Z,100.00
2022-09-07T18:11:48.503Z,100.00
2022-09-07T18:14:16.644Z,100.00
2022-09-07T18:16:45.259Z,100.00
2022-09-07T18:19:12.685Z,100.00
2022-09-07T18:21:43.590Z,100.00
2022-09-07T18:24:20.550Z,100.00
2022-09-07T18:26:50.629Z,100.00
2022-09-07T18:29:36.858Z,100.00
2022-09-07T18:32:08.763Z,100.00
2022-09-07T18:34:36.537Z,100.00
2022-09-07T18:37:03.434Z,100.00
2022-09-07T18:39:30.383Z,100.00
2022-09-07T18:41:57.240Z,100.00
2022-09-07T18:47:21.774Z,100.00
2022-09-07T18:49:51.545Z,100.00
2022-09-07T18:55:10.115Z,100.00
2022-09-07T18:57:37.367Z,100.00
2022-09-07T19:00:06.429Z,100.00
2022-09-07T19:02:33.643Z,100.00
2022-09-07T19:07:47.306Z,100.00
2022-09-07T19:10:16.654Z,100.00
2022-09-07T19:12:45.825Z,100.00
2022-09-07T19:15:13.339Z,100.00
2022-09-07T19:17:40.482Z,100.00
2022-09-07T19:20:07.652Z,100.00
2022-09-07T19:32:11.830Z,100.00
2022-09-07T19:34:41.335Z,100.00
2022-09-07T19:37:10.087Z,100.00
2022-09-07T19:39:37.182Z,100.00
2022-09-07T19:42:05.674Z,100.00
2022-09-07T19:44:33.135Z,100.00
2022-09-07T19:47:00.655Z,100.00
2022-09-07T19:49:27.972Z,100.00
2022-09-07T19:51:55.165Z,100.00
2022-09-07T19:54:25.121Z,100.00
2022-09-07T19:56:51.734Z,100.00
2022-09-07T19:59:19.661Z,100.00
2022-09-07T20:01:49.419Z,100.00
2022-09-07T20:04:20.846Z,100.00
2022-09-07T20:06:50.254Z,100.00
2022-09-07T20:09:20.642Z,100.00
2022-09-07T20:11:48.290Z,100.00
2022-09-07T20:14:16.118Z,100.00
2022-09-07T20:16:43.620Z,100.00
2022-09-07T20:19:14.544Z,100.00
2022-09-07T20:21:41.600Z,100.00
2022-09-07T20:24:08.292Z,100.00
2022-09-07T20:26:34.959Z,100.00
2022-09-07T20:29:23.855Z,100.00
2022-09-07T20:31:48.359Z,100.00
2022-09-07T20:34:15.153Z,100.00
2022-09-07T20:36:41.867Z,100.00
2022-09-07T20:39:15.680Z,100.00
2022-09-07T20:41:42.592Z,100.00
2022-09-07T20:44:09.308Z,100.00
2022-09-07T20:46:36.601Z,100.00
2022-09-07T20:49:04.855Z,100.00
2022-09-07T20:51:32.347Z,100.00
2022-09-07T20:53:59.123Z,100.00
2022-09-07T20:56:28.171Z,100.00
2022-09-07T20:58:59.082Z,100.00
2022-09-07T21:01:26.527Z,100.00
2022-09-07T21:03:55.248Z,100.00
2022-09-07T21:06:23.190Z,100.00
2022-09-07T21:08:51.284Z,100.00
2022-09-07T21:11:24.052Z,100.00
2022-09-07T21:14:02.179Z,100.00
2022-09-07T21:16:29.304Z,100.00
2022-09-07T21:18:58.636Z,100.00
2022-09-07T21:21:27.366Z,100.00
2022-09-07T21:24:03.172Z,100.00
2022-09-07T21:26:31.818Z,100.00
2022-09-07T21:29:01.324Z,100.00
2022-09-07T21:31:29.808Z,100.00
2022-09-07T21:33:59.220Z,100.00
2022-09-07T21:36:26.504Z,100.00
2022-09-07T21:38:54.386Z,100.00
2022-09-07T21:41:23.377Z,100.00
2022-09-07T21:43:57.805Z,100.00
2022-09-07T21:46:25.441Z,100.00
2022-09-07T21:48:52.279Z,100.00
2022-09-07T21:51:19.375Z,100.00
2022-09-07T21:53:54.450Z,100.00
2022-09-07T21:56:21.510Z,100.00
2022-09-07T21:58:48.396Z,100.00
2022-09-07T22:01:17.847Z,100.00
2022-09-07T22:03:47.265Z,100.00
2022-09-07T22:06:14.969Z,100.00
2022-09-07T22:08:42.934Z,100.00
2022-09-07T22:11:15.474Z,100.00
2022-09-07T22:13:46.034Z,100.00
2022-09-07T22:16:14.490Z,100.00
2022-09-07T22:18:45.621Z,100.00
2022-09-07T22:21:26.916Z,100.00
2022-09-07T22:23:56.658Z,100.00
2022-09-07T22:26:25.773Z,100.00
2022-09-07T22:28:52.595Z,100.00
2022-09-07T22:31:22.233Z,100.00
2022-09-07T22:33:50.685Z,100.00
2022-09-07T22:36:32.623Z,100.00
2022-09-07T22:39:02.711Z,100.00
2022-09-07T22:41:34.820Z,100.00
2022-09-07T22:44:01.575Z,100.00
2022-09-07T22:46:31.094Z,100.00
2022-09-07T22:48:58.830Z,100.00
2022-09-07T22:51:26.733Z,100.00
2022-09-07T22:53:54.728Z,100.00
2022-09-07T22:56:27.780Z,100.00
2022-09-07T22:58:57.889Z,100.00
2022-09-07T23:01:25.371Z,100.00
2022-09-07T23:03:53.505Z,100.00
2022-09-07T23:06:20.868Z,100.00
2022-09-07T23:08:47.885Z,100.00
2022-09-07T23:11:14.782Z,100.00
2022-09-07T23:13:41.777Z,100.00
2022-09-07T23:16:09.140Z,100.00
2022-09-07T23:18:38.075Z,100.00
2022-09-07T23:21:04.780Z,100.00
2022-09-07T23:23:31.436Z,100.00
2022-09-07T23:26:01.302Z,100.00
2022-09-07T23:28:28.660Z,100.00
2022-09-07T23:30:55.441Z,100.00
2022-09-07T23:33:22.179Z,100.00
2022-09-07T23:36:18.774Z,100.00
2022-09-07T23:38:46.647Z,100.00
2022-09-07T23:41:14.187Z,100.00
2022-09-07T23:43:41.012Z,100.00
2022-09-07T23:46:08.243Z,100.00
2022-09-07T23:48:34.923Z,100.00
2022-09-07T23:51:01.916Z,100.00
2022-09-07T23:53:30.685Z,100.00
2022-09-07T23:55:57.498Z,100.00
2022-09-07T23:58:24.563Z,100.00
